📊 Raw Sensor Data
Showing records 50351 to 50375 of 85,133 total
| ID | Distance (ft) | Battery V | Battery A | Int Temp (°F) | Int Humid (%) | Ext Temp (°F) | Solar V | RSSI | SNR | Time Stamp |
|---|---|---|---|---|---|---|---|---|---|---|
| 34795 | -- | 4.10 | -6 | 48 | 43 | 48 | 4.50 | -78 | 8 | 03/12/2025 04:45 PM |
| 34794 | -- | 4.09 | 0 | 48 | 44 | 48 | 4.50 | -80 | 8 | 03/12/2025 04:30 PM |
| 34793 | -- | 4.05 | 16 | 49 | 44 | 48 | 4.50 | -83 | 8 | 03/12/2025 04:15 PM |
| 34792 | 21.5 | 4.00 | 0 | 53 | 42 | 54 | 4.50 | -85 | 7 | 03/12/2025 04:00 PM |
| 34791 | -- | 4.06 | 0 | 54 | 42 | 55 | 4.50 | -83 | 7 | 03/12/2025 03:46 PM |
| 34790 | 15.3 | 4.09 | 8 | 54 | 42 | 55 | 4.50 | -81 | 7 | 03/12/2025 03:30 PM |
| 34789 | 25.6 | 4.11 | 10 | 55 | 41 | 57 | 4.50 | -92 | 7 | 03/12/2025 03:15 PM |
| 34788 | -- | 4.05 | 14 | 57 | 41 | 58 | 4.50 | -78 | 7 | 03/12/2025 03:01 PM |
| 34787 | 15.3 | 4.07 | 32 | 58 | 40 | 57 | 4.50 | -80 | 8 | 03/12/2025 02:45 PM |
| 34786 | -- | 4.03 | 20 | 59 | 39 | 59 | 4.50 | -75 | 8 | 03/12/2025 02:30 PM |
| 34785 | -- | 4.06 | 0 | 59 | 39 | 59 | 4.50 | -78 | 8 | 03/12/2025 02:15 PM |
| 34784 | -- | 4.03 | 0 | 58 | 40 | 58 | 5.10 | -78 | 9 | 03/12/2025 01:45 PM |
| 34783 | -- | 4.09 | 49 | 59 | 39 | 59 | 4.50 | -77 | 7 | 03/12/2025 01:31 PM |
| 34782 | -- | 4.02 | 5 | 61 | 38 | 60 | 5.10 | -74 | 9 | 03/12/2025 01:15 PM |
| 34781 | -- | 4.02 | 5 | 61 | 37 | 62 | 5.10 | -76 | 9 | 03/12/2025 01:00 PM |
| 34780 | -- | 4.02 | 5 | 57 | 39 | 58 | 5.10 | -77 | 8 | 03/12/2025 12:45 PM |
| 34779 | -- | 4.02 | 0 | 55 | 40 | 56 | 5.10 | -75 | 9 | 03/12/2025 12:30 PM |
| 34778 | -- | 4.02 | 5 | 55 | 40 | 55 | 5.10 | -79 | 8 | 03/12/2025 12:15 PM |
| 34777 | -- | 4.02 | 0 | 57 | 39 | 56 | 5.10 | -73 | 9 | 03/12/2025 12:00 PM |
| 34776 | 15.4 | 4.02 | 0 | 57 | 39 | 56 | 5.10 | -75 | 8 | 03/12/2025 11:45 AM |
| 34775 | -- | 4.02 | 0 | 58 | 38 | 57 | 5.10 | -74 | 9 | 03/12/2025 11:30 AM |
| 34774 | -- | 4.02 | 0 | 58 | 38 | 57 | 5.10 | -74 | 8 | 03/12/2025 11:15 AM |
| 34773 | -- | 4.02 | 5 | 57 | 38 | 57 | 5.10 | -74 | 8 | 03/12/2025 11:00 AM |
| 34772 | -- | 4.02 | 0 | 56 | 39 | 56 | 5.10 | -73 | 8 | 03/12/2025 10:45 AM |
| 34771 | -- | 4.14 | 53 | 56 | 39 | 56 | 4.50 | -74 | 8 | 03/12/2025 10:30 AM |